createdAt,value
2023-07-28T00:00:38.461Z,20.82
2023-07-28T00:03:06.761Z,20.83
2023-07-28T00:05:37.897Z,20.86
2023-07-28T00:08:06.209Z,20.78
2023-07-28T00:10:34.205Z,20.82
2023-07-28T00:13:03.563Z,20.84
2023-07-28T00:15:31.558Z,20.83
2023-07-28T00:18:00.960Z,20.82
2023-07-28T00:20:29.032Z,20.74
2023-07-28T00:22:58.377Z,20.74
2023-07-28T00:25:26.566Z,20.72
2023-07-28T00:27:54.607Z,20.81
2023-07-28T00:30:22.886Z,20.71
2023-07-28T00:32:51.330Z,20.91
2023-07-28T00:35:19.453Z,20.83
2023-07-28T00:37:47.352Z,20.77
2023-07-28T00:40:16.632Z,20.78
2023-07-28T00:42:44.698Z,20.84
2023-07-28T00:45:12.731Z,20.79
2023-07-28T00:47:40.690Z,20.78
2023-07-28T00:50:10.955Z,20.68
2023-07-28T00:52:39.638Z,20.64
2023-07-28T00:55:08.968Z,20.59
2023-07-28T00:57:40.409Z,20.67
2023-07-28T01:00:09.696Z,20.60
2023-07-28T01:02:38.423Z,20.63
2023-07-28T01:05:07.501Z,20.54
2023-07-28T01:07:42.425Z,20.63
2023-07-28T01:10:14.042Z,20.69
2023-07-28T01:12:43.340Z,20.57
2023-07-28T01:15:12.014Z,20.65
2023-07-28T01:17:40.122Z,20.67
2023-07-28T01:20:09.309Z,20.68
2023-07-28T01:22:50.900Z,20.65
2023-07-28T01:25:28.636Z,20.66
2023-07-28T01:27:59.214Z,20.74
2023-07-28T01:30:28.207Z,20.67
2023-07-28T01:32:56.849Z,20.83
2023-07-28T01:35:25.228Z,20.65
2023-07-28T01:37:53.287Z,20.77
2023-07-28T01:40:21.928Z,20.77
2023-07-28T01:42:49.961Z,20.78
2023-07-28T01:45:19.496Z,20.79
2023-07-28T01:47:48.446Z,20.60
2023-07-28T01:50:16.582Z,20.68
2023-07-28T01:52:44.559Z,20.67
2023-07-28T01:55:12.541Z,20.64
2023-07-28T01:57:41.664Z,20.60
2023-07-28T02:00:10.602Z,20.69
2023-07-28T02:02:52.502Z,20.51
2023-07-28T02:05:21.119Z,20.55
2023-07-28T02:07:49.101Z,20.61
2023-07-28T02:10:17.653Z,20.62
2023-07-28T02:12:45.584Z,20.63
2023-07-28T02:15:14.081Z,20.45
2023-07-28T02:17:43.407Z,20.53
2023-07-28T02:20:14.022Z,20.62
2023-07-28T02:22:42.119Z,20.55
2023-07-28T02:25:10.660Z,20.56
2023-07-28T02:27:38.890Z,20.68
2023-07-28T02:30:08.622Z,20.59
2023-07-28T02:32:36.796Z,20.57
2023-07-28T02:35:07.118Z,20.56
2023-07-28T02:37:35.078Z,20.49
2023-07-28T02:40:03.051Z,20.49
2023-07-28T02:42:31.644Z,20.47
2023-07-28T02:44:59.638Z,20.47
2023-07-28T02:47:27.723Z,20.44
2023-07-28T02:49:55.937Z,20.45
2023-07-28T02:52:25.324Z,20.46
2023-07-28T02:54:53.368Z,20.56
2023-07-28T02:57:21.358Z,20.59
2023-07-28T02:59:49.367Z,20.44
2023-07-28T03:02:17.303Z,20.41
2023-07-28T03:04:45.274Z,20.26
2023-07-28T03:07:13.206Z,20.25
2023-07-28T03:09:42.458Z,20.31
2023-07-28T03:12:10.988Z,20.16
2023-07-28T03:14:38.869Z,20.13
2023-07-28T03:17:07.035Z,20.10
2023-07-28T03:19:35.060Z,20.10
2023-07-28T03:22:03.036Z,20.20
2023-07-28T03:24:30.999Z,20.24
2023-07-28T03:27:00.316Z,20.17
2023-07-28T03:29:28.201Z,20.02
2023-07-28T03:31:56.170Z,20.05
2023-07-28T03:34:24.133Z,19.98
2023-07-28T03:36:52.097Z,20.00
2023-07-28T03:39:20.000Z,20.09
2023-07-28T03:41:48.172Z,20.04
2023-07-28T03:44:17.559Z,20.12
2023-07-28T03:46:45.573Z,20.10
2023-07-28T03:49:13.562Z,20.11
2023-07-28T03:51:41.464Z,20.10
2023-07-28T03:54:09.475Z,20.05
2023-07-28T03:56:37.718Z,20.26
2023-07-28T03:59:06.712Z,20.21
2023-07-28T04:01:36.038Z,20.27
2023-07-28T04:04:07.322Z,20.23
2023-07-28T04:06:44.055Z,20.30
2023-07-28T04:09:13.817Z,20.14
2023-07-28T04:11:41.803Z,20.21
2023-07-28T04:14:09.771Z,20.25
2023-07-28T04:16:39.157Z,20.27
2023-07-28T04:19:07.154Z,20.33
2023-07-28T04:21:35.173Z,20.28
2023-07-28T04:24:03.245Z,20.40
2023-07-28T04:26:31.204Z,20.34
2023-07-28T04:28:59.225Z,20.33
2023-07-28T04:31:28.338Z,20.28
2023-07-28T04:33:57.655Z,20.36
2023-07-28T04:36:25.720Z,20.38
2023-07-28T04:38:53.728Z,20.48
2023-07-28T04:41:22.201Z,20.42
2023-07-28T04:43:50.235Z,20.46
2023-07-28T04:46:18.217Z,20.57
2023-07-28T04:48:46.220Z,20.57
2023-07-28T04:51:15.634Z,20.61
2023-07-28T04:53:44.074Z,20.56
2023-07-28T04:56:11.979Z,20.69
2023-07-28T04:58:39.950Z,20.66
2023-07-28T05:01:10.277Z,20.69
2023-07-28T05:03:38.498Z,20.70
2023-07-28T05:06:06.537Z,20.67
2023-07-28T05:08:35.832Z,20.72
2023-07-28T05:11:04.062Z,20.81
2023-07-28T05:13:32.032Z,20.71
2023-07-28T05:16:00.979Z,20.69
2023-07-28T05:18:28.972Z,20.78
2023-07-28T05:20:56.906Z,20.81
2023-07-28T05:23:24.903Z,20.70
2023-07-28T05:25:54.247Z,20.74
2023-07-28T05:28:22.293Z,20.67
2023-07-28T05:30:50.262Z,20.79
2023-07-28T05:33:18.332Z,20.84
2023-07-28T05:35:46.248Z,20.90
2023-07-28T05:38:14.224Z,20.89
2023-07-28T05:40:42.205Z,20.85
2023-07-28T05:43:11.493Z,20.95
2023-07-28T05:45:39.589Z,20.95
2023-07-28T05:48:07.911Z,20.95
2023-07-28T05:50:40.211Z,20.85
2023-07-28T05:53:08.649Z,20.84
2023-07-28T05:55:36.595Z,20.87
2023-07-28T05:58:04.580Z,20.84
2023-07-28T06:00:34.054Z,20.82
2023-07-28T06:03:02.253Z,20.88
2023-07-28T06:05:30.263Z,20.91
2023-07-28T06:07:58.143Z,20.85
2023-07-28T06:10:26.103Z,20.99
2023-07-28T06:12:54.100Z,21.02
2023-07-28T06:15:22.038Z,21.05
2023-07-28T06:17:51.454Z,21.06
2023-07-28T06:20:19.404Z,21.17
2023-07-28T06:22:47.354Z,21.17
2023-07-28T06:25:15.347Z,21.23
2023-07-28T06:27:43.989Z,21.30
2023-07-28T06:30:13.114Z,21.35
2023-07-28T06:32:41.295Z,21.38
2023-07-28T06:35:11.210Z,21.47
2023-07-28T06:37:39.388Z,21.41
2023-07-28T06:40:10.286Z,21.42
2023-07-28T06:42:38.685Z,21.46
2023-07-28T06:45:07.585Z,21.52
2023-07-28T06:47:35.569Z,21.66
2023-07-28T06:50:03.564Z,21.59
2023-07-28T06:52:32.975Z,21.72
2023-07-28T06:55:00.948Z,21.73
2023-07-28T06:57:28.932Z,21.83
2023-07-28T06:59:56.900Z,21.86
2023-07-28T07:02:24.982Z,21.88
2023-07-28T07:04:53.111Z,21.89
2023-07-28T07:07:21.143Z,21.90
2023-07-28T07:09:50.556Z,21.90
2023-07-28T07:12:18.460Z,21.92
2023-07-28T07:14:46.382Z,21.99
2023-07-28T07:17:14.344Z,22.01
2023-07-28T07:19:42.402Z,22.18
2023-07-28T07:22:10.457Z,22.26
2023-07-28T07:24:38.408Z,22.32
2023-07-28T07:27:11.972Z,22.36
2023-07-28T07:29:40.137Z,22.39
2023-07-28T07:32:09.246Z,22.30
2023-07-28T07:34:38.232Z,22.40
2023-07-28T07:37:06.860Z,22.44
2023-07-28T07:39:35.107Z,22.47
2023-07-28T07:42:03.113Z,22.51
2023-07-28T07:44:32.406Z,22.57
2023-07-28T07:47:02.922Z,22.63
2023-07-28T07:49:30.957Z,22.71
2023-07-28T07:51:58.977Z,22.91
2023-07-28T07:54:26.982Z,22.89
2023-07-28T07:56:55.131Z,22.91
2023-07-28T07:59:23.226Z,22.87
2023-07-28T08:01:52.542Z,22.86
2023-07-28T08:04:20.588Z,22.87
2023-07-28T08:06:48.973Z,23.02
2023-07-28T08:09:16.992Z,22.97
2023-07-28T08:11:45.096Z,23.05
2023-07-28T08:14:13.158Z,23.05
2023-07-28T08:16:41.132Z,23.05
2023-07-28T08:19:10.834Z,23.03
2023-07-28T08:21:39.029Z,23.09
2023-07-28T08:24:07.504Z,23.14
2023-07-28T08:26:35.551Z,23.15
2023-07-28T08:29:03.584Z,23.22
2023-07-28T08:31:31.568Z,23.21
2023-07-28T08:33:59.587Z,23.21
2023-07-28T08:36:28.985Z,23.29
2023-07-28T08:38:57.060Z,23.30
2023-07-28T08:41:24.954Z,23.31
2023-07-28T08:43:53.193Z,23.25
2023-07-28T08:46:22.364Z,23.25
2023-07-28T08:48:50.495Z,23.18
2023-07-28T08:51:18.509Z,23.30
2023-07-28T08:53:47.802Z,23.31
2023-07-28T08:56:15.784Z,23.40
2023-07-28T08:58:43.791Z,23.40
2023-07-28T09:01:13.400Z,23.50
2023-07-28T09:03:42.384Z,23.51
2023-07-28T09:06:10.600Z,23.58
2023-07-28T09:08:38.942Z,23.62
2023-07-28T09:11:08.544Z,23.60
2023-07-28T09:13:38.970Z,23.57
2023-07-28T09:16:07.064Z,23.57
2023-07-28T09:18:35.151Z,23.67
2023-07-28T09:21:03.122Z,23.73
2023-07-28T09:23:32.095Z,23.81
2023-07-28T09:26:06.275Z,23.80
2023-07-28T09:28:41.307Z,23.82
2023-07-28T09:31:11.293Z,23.85
2023-07-28T09:33:43.840Z,23.91
2023-07-28T09:36:12.990Z,24.00
2023-07-28T09:38:42.812Z,24.00
2023-07-28T09:41:12.633Z,24.02
2023-07-28T09:43:44.070Z,24.05
2023-07-28T09:46:12.916Z,24.08
2023-07-28T09:48:45.360Z,24.06
2023-07-28T09:51:16.980Z,24.08
2023-07-28T09:53:48.893Z,24.07
2023-07-28T09:56:18.294Z,24.02
2023-07-28T09:58:52.760Z,24.06
2023-07-28T10:01:23.065Z,24.16
2023-07-28T10:03:51.412Z,24.23
2023-07-28T10:06:20.143Z,24.21
2023-07-28T10:08:48.551Z,24.28
2023-07-28T10:11:17.321Z,24.28
2023-07-28T10:13:47.577Z,24.30
2023-07-28T10:16:18.581Z,24.32
2023-07-28T10:18:55.185Z,24.34
2023-07-28T10:21:23.468Z,24.40
2023-07-28T10:23:57.106Z,24.44
2023-07-28T10:26:38.444Z,24.49
2023-07-28T10:29:11.486Z,24.55
2023-07-28T10:31:51.984Z,24.56
2023-07-28T10:34:20.124Z,24.57
2023-07-28T10:36:48.635Z,24.64
2023-07-28T10:39:19.209Z,24.70
2023-07-28T10:42:03.242Z,24.80
2023-07-28T10:44:31.724Z,24.85
2023-07-28T10:47:01.220Z,24.85
2023-07-28T10:49:29.354Z,24.89
2023-07-28T10:51:57.472Z,24.95
2023-07-28T10:54:26.292Z,25.00
2023-07-28T10:56:54.309Z,25.07
2023-07-28T10:59:22.280Z,25.09
2023-07-28T11:01:50.422Z,25.14
2023-07-28T11:04:21.199Z,25.06
2023-07-28T11:06:50.759Z,25.20
2023-07-28T11:09:20.145Z,25.32
2023-07-28T11:11:48.672Z,25.33
2023-07-28T11:14:18.757Z,25.30
2023-07-28T11:16:49.322Z,25.34
2023-07-28T11:19:25.933Z,25.38
2023-07-28T11:21:54.525Z,25.47
2023-07-28T11:24:23.615Z,25.50
2023-07-28T11:26:52.312Z,25.56
2023-07-28T11:29:21.088Z,25.56
2023-07-28T11:31:50.185Z,25.55
2023-07-28T11:34:20.312Z,25.57
2023-07-28T11:36:48.335Z,25.59
2023-07-28T11:39:17.532Z,25.63
2023-07-28T11:41:47.082Z,25.67
2023-07-28T11:44:15.331Z,25.73
2023-07-28T11:46:45.132Z,25.73
2023-07-28T11:49:16.441Z,25.75
2023-07-28T11:51:46.889Z,25.81
2023-07-28T11:54:16.509Z,25.85
2023-07-28T11:56:45.004Z,25.88
2023-07-28T11:59:13.724Z,25.86
2023-07-28T12:07:10.199Z,26.02
2023-07-28T12:12:27.365Z,26.10
2023-07-28T12:18:52.746Z,26.12
2023-07-28T12:20:18.198Z,26.13
2023-07-28T12:22:48.581Z,26.11
2023-07-28T12:25:17.435Z,26.13
2023-07-28T12:27:45.447Z,26.09
2023-07-28T12:30:17.293Z,26.10
2023-07-28T12:35:16.932Z,26.14
2023-07-28T12:45:22.993Z,26.24
2023-07-28T12:47:58.926Z,26.29
2023-07-28T12:50:27.390Z,26.33
2023-07-28T12:55:28.537Z,26.47
2023-07-28T12:57:56.646Z,26.53
2023-07-28T13:02:55.513Z,26.39
2023-07-28T13:05:23.569Z,26.43
2023-07-28T13:12:57.085Z,26.49
2023-07-28T13:15:25.592Z,26.51
2023-07-28T13:17:53.700Z,26.48
2023-07-28T13:20:22.178Z,26.49
2023-07-28T13:22:50.164Z,26.50
2023-07-28T13:25:18.519Z,26.46
2023-07-28T13:27:46.572Z,26.43
2023-07-28T13:30:16.135Z,26.36
2023-07-28T13:32:44.220Z,26.38
2023-07-28T13:35:13.354Z,26.31
2023-07-28T13:37:41.314Z,26.31
2023-07-28T13:40:12.217Z,26.32
2023-07-28T13:42:41.497Z,26.27
2023-07-28T13:45:11.338Z,26.20
2023-07-28T13:47:40.686Z,26.17
2023-07-28T13:50:09.379Z,26.09
2023-07-28T13:52:37.726Z,26.05
2023-07-28T13:57:37.562Z,26.00
2023-07-28T14:00:10.076Z,26.01
2023-07-28T14:02:41.988Z,26.01
2023-07-28T14:05:10.966Z,26.00
2023-07-28T14:07:38.958Z,25.96
2023-07-28T14:10:08.067Z,25.97
2023-07-28T14:12:36.238Z,26.01
2023-07-28T14:15:04.639Z,25.95
2023-07-28T14:17:32.552Z,25.95
2023-07-28T14:20:02.136Z,25.94
2023-07-28T14:22:30.188Z,25.95
2023-07-28T14:24:58.219Z,25.97
2023-07-28T14:27:26.162Z,25.97
2023-07-28T14:29:54.128Z,25.95
2023-07-28T14:32:22.176Z,25.95
2023-07-28T14:34:50.103Z,25.91
2023-07-28T14:37:19.412Z,25.86
2023-07-28T14:39:47.354Z,25.81
2023-07-28T14:42:15.220Z,25.79
2023-07-28T14:44:43.202Z,25.76
2023-07-28T14:47:11.157Z,25.75
2023-07-28T14:49:39.156Z,25.71
2023-07-28T14:52:07.959Z,25.78
2023-07-28T14:54:37.376Z,25.76
2023-07-28T14:57:10.087Z,25.74
2023-07-28T14:59:42.520Z,25.72
2023-07-28T15:02:12.898Z,25.67
2023-07-28T15:04:40.854Z,25.71
2023-07-28T15:07:09.182Z,25.67
2023-07-28T15:09:38.479Z,25.65
2023-07-28T15:12:07.433Z,25.64
2023-07-28T15:14:35.349Z,25.60
2023-07-28T15:17:03.387Z,25.67
2023-07-28T15:19:31.482Z,25.57
2023-07-28T15:21:59.654Z,25.53
2023-07-28T15:24:27.718Z,25.49
2023-07-28T15:26:57.055Z,25.49
2023-07-28T15:29:25.046Z,25.45
2023-07-28T15:31:54.958Z,25.47
2023-07-28T15:34:23.508Z,25.43
2023-07-28T15:36:51.481Z,25.40
2023-07-28T15:39:19.506Z,25.40
2023-07-28T15:41:47.484Z,25.39
2023-07-28T15:44:16.774Z,25.41
2023-07-28T15:46:44.816Z,25.39
2023-07-28T15:49:13.034Z,25.36
2023-07-28T15:51:41.052Z,25.33
2023-07-28T15:54:09.362Z,25.34
2023-07-28T15:56:37.339Z,25.31
2023-07-28T15:59:05.401Z,25.32
2023-07-28T16:01:35.124Z,25.30
2023-07-28T16:04:03.717Z,25.31
2023-07-28T16:06:31.842Z,25.31
2023-07-28T16:09:15.796Z,25.33
2023-07-28T16:11:44.979Z,25.33
2023-07-28T16:14:14.251Z,25.39
2023-07-28T16:16:43.622Z,25.35
2023-07-28T16:19:11.615Z,25.33
2023-07-28T16:21:39.521Z,25.30
2023-07-28T16:24:09.175Z,25.32
2023-07-28T16:26:37.406Z,25.44
2023-07-28T16:29:05.383Z,25.60
2023-07-28T16:31:34.515Z,25.49
2023-07-28T16:34:05.198Z,25.34
2023-07-28T16:36:33.273Z,25.32
2023-07-28T16:39:01.897Z,25.20
2023-07-28T16:41:30.143Z,25.12
2023-07-28T16:43:58.240Z,24.84
2023-07-28T16:46:26.576Z,24.73
2023-07-28T16:48:54.756Z,24.61
2023-07-28T16:51:24.091Z,24.43
2023-07-28T16:53:52.511Z,24.48
2023-07-28T16:56:20.737Z,24.51
2023-07-28T16:58:48.817Z,24.49
2023-07-28T17:01:17.496Z,24.51
2023-07-28T17:03:45.591Z,24.45
2023-07-28T17:06:13.997Z,24.41
2023-07-28T17:08:44.471Z,24.31
2023-07-28T17:11:12.585Z,24.28
2023-07-28T17:13:40.533Z,24.31
2023-07-28T17:16:08.725Z,24.23
2023-07-28T17:18:36.784Z,24.28
2023-07-28T17:21:05.165Z,24.27
2023-07-28T17:23:33.658Z,24.31
2023-07-28T17:26:03.431Z,24.36
2023-07-28T17:28:31.703Z,24.34
2023-07-28T17:31:00.329Z,24.39
2023-07-28T17:33:28.653Z,24.40
2023-07-28T17:35:57.162Z,24.45
2023-07-28T17:38:25.172Z,24.47
2023-07-28T17:40:53.490Z,24.49
2023-07-28T17:43:22.973Z,24.48
2023-07-28T17:45:51.725Z,24.52
2023-07-28T17:48:20.809Z,24.54
2023-07-28T17:50:49.053Z,24.56
2023-07-28T17:53:17.240Z,24.60
2023-07-28T17:55:45.611Z,24.60
2023-07-28T17:58:13.703Z,24.61
2023-07-28T18:00:43.739Z,24.59
2023-07-28T18:03:13.011Z,24.60
2023-07-28T18:05:41.756Z,24.61
2023-07-28T18:08:13.117Z,24.61
2023-07-28T18:10:42.458Z,24.62
2023-07-28T18:13:11.846Z,24.63
2023-07-28T18:15:40.939Z,24.64
2023-07-28T18:18:10.447Z,24.64
2023-07-28T18:20:39.598Z,24.65
2023-07-28T18:23:08.414Z,24.64
2023-07-28T18:25:37.345Z,24.65
2023-07-28T18:28:06.654Z,24.66
2023-07-28T18:30:35.993Z,24.67
2023-07-28T18:33:05.150Z,24.67
2023-07-28T18:35:35.839Z,24.65
2023-07-28T18:38:05.563Z,24.68
2023-07-28T18:40:34.489Z,24.75
2023-07-28T18:43:04.776Z,24.86
2023-07-28T18:45:33.026Z,24.97
2023-07-28T18:48:02.273Z,24.88
2023-07-28T18:50:30.901Z,24.86
2023-07-28T18:53:00.757Z,24.95
2023-07-28T18:55:29.260Z,24.87
2023-07-28T18:57:57.740Z,24.80
2023-07-28T19:00:27.915Z,24.78
2023-07-28T19:02:56.914Z,24.84
2023-07-28T19:05:26.407Z,24.82
2023-07-28T19:07:54.497Z,24.78
2023-07-28T19:10:24.576Z,24.74
2023-07-28T19:12:53.265Z,24.66
2023-07-28T19:15:40.810Z,24.65
2023-07-28T19:18:10.229Z,24.66
2023-07-28T19:20:38.335Z,24.74
2023-07-28T19:23:08.557Z,24.74
2023-07-28T19:25:38.504Z,24.68
2023-07-28T19:28:07.684Z,24.74
2023-07-28T19:30:36.645Z,24.82
2023-07-28T19:33:05.853Z,24.76
2023-07-28T19:35:36.077Z,24.56
2023-07-28T19:38:04.805Z,24.61
2023-07-28T19:40:34.126Z,24.57
2023-07-28T19:43:04.020Z,24.59
2023-07-28T19:45:33.187Z,24.47
2023-07-28T19:48:02.930Z,24.42
2023-07-28T19:50:45.351Z,24.38
2023-07-28T19:53:16.384Z,24.47
2023-07-28T19:55:47.006Z,24.29
2023-07-28T19:58:17.816Z,24.29
2023-07-28T20:00:46.818Z,24.26
2023-07-28T20:03:16.290Z,24.26
2023-07-28T20:05:45.590Z,24.25
2023-07-28T20:08:14.380Z,24.24
2023-07-28T20:10:43.281Z,24.24
2023-07-28T20:13:11.271Z,24.22
2023-07-28T20:15:41.366Z,24.23
2023-07-28T20:18:11.251Z,24.25
2023-07-28T20:20:39.247Z,24.25
2023-07-28T20:23:08.564Z,24.27
2023-07-28T20:25:38.017Z,24.26
2023-07-28T20:28:07.823Z,24.26
2023-07-28T20:30:37.623Z,24.28
2023-07-28T20:33:07.915Z,24.30
2023-07-28T20:35:36.031Z,24.31
2023-07-28T20:38:07.018Z,24.30
2023-07-28T20:40:36.986Z,24.36
2023-07-28T20:43:05.042Z,24.34
2023-07-28T20:45:33.764Z,24.32
2023-07-28T20:48:02.703Z,24.36
2023-07-28T20:50:32.768Z,24.37
2023-07-28T20:53:01.826Z,24.33
2023-07-28T20:55:30.810Z,24.33
2023-07-28T20:58:02.465Z,24.32
2023-07-28T21:00:30.725Z,24.31
2023-07-28T21:03:00.481Z,24.34
2023-07-28T21:05:28.547Z,24.37
2023-07-28T21:07:57.864Z,24.37
2023-07-28T21:10:27.283Z,24.33
2023-07-28T21:12:55.265Z,24.33
2023-07-28T21:15:24.061Z,24.29
2023-07-28T21:17:52.136Z,24.25
2023-07-28T21:20:20.241Z,24.25
2023-07-28T21:22:48.252Z,24.25
2023-07-28T21:25:17.810Z,24.28
2023-07-28T21:27:45.823Z,24.28
2023-07-28T21:30:14.008Z,24.27
2023-07-28T21:32:41.996Z,24.25
2023-07-28T21:35:10.367Z,24.26
2023-07-28T21:37:38.399Z,24.27
2023-07-28T21:40:08.308Z,24.27
2023-07-28T21:42:37.765Z,24.31
2023-07-28T21:45:06.891Z,24.29
2023-07-28T21:47:34.912Z,24.30
2023-07-28T21:50:03.162Z,24.28
2023-07-28T21:52:31.107Z,24.27
2023-07-28T21:54:59.284Z,24.19
2023-07-28T21:57:27.429Z,24.32
2023-07-28T21:59:56.667Z,24.29
2023-07-28T22:02:24.922Z,24.28
2023-07-28T22:04:52.911Z,24.27
2023-07-28T22:07:20.923Z,24.26
2023-07-28T22:09:48.953Z,24.25
2023-07-28T22:12:17.205Z,24.23
2023-07-28T22:14:45.120Z,24.25
2023-07-28T22:17:14.447Z,24.24
2023-07-28T22:19:42.443Z,24.23
2023-07-28T22:22:10.721Z,24.25
2023-07-28T22:24:39.148Z,24.25
2023-07-28T22:27:07.884Z,24.24
2023-07-28T22:29:35.847Z,24.31
2023-07-28T22:32:03.956Z,24.30
2023-07-28T22:34:33.343Z,24.34
2023-07-28T22:37:01.295Z,24.28
2023-07-28T22:39:29.418Z,24.16
2023-07-28T22:41:57.581Z,24.26
2023-07-28T22:44:25.659Z,24.26
2023-07-28T22:46:53.689Z,24.23
2023-07-28T22:49:21.592Z,24.19
2023-07-28T22:51:50.841Z,24.19
2023-07-28T22:54:18.779Z,24.18
2023-07-28T22:56:46.748Z,24.16
2023-07-28T22:59:14.768Z,24.17
2023-07-28T23:01:42.865Z,24.15
2023-07-28T23:04:10.799Z,24.15
2023-07-28T23:06:38.983Z,24.11
2023-07-28T23:09:09.617Z,24.15
2023-07-28T23:11:37.596Z,24.13
2023-07-28T23:14:05.486Z,24.11
2023-07-28T23:16:33.473Z,24.06
2023-07-28T23:19:01.460Z,24.04
2023-07-28T23:21:29.390Z,24.16
2023-07-28T23:23:57.463Z,24.08
2023-07-28T23:26:26.874Z,24.01
2023-07-28T23:28:54.824Z,23.96
2023-07-28T23:31:24.464Z,23.96
2023-07-28T23:33:52.433Z,23.93
2023-07-28T23:36:20.633Z,23.95
2023-07-28T23:38:48.676Z,23.97
2023-07-28T23:41:17.692Z,23.88
2023-07-28T23:43:47.106Z,23.85
2023-07-28T23:46:15.227Z,23.86
2023-07-28T23:48:43.222Z,23.87
2023-07-28T23:51:11.208Z,23.87
2023-07-28T23:53:39.189Z,23.83
2023-07-28T23:56:07.241Z,23.76
2023-07-28T23:58:35.201Z,23.82
